createdAt,value
2017-11-07T00:01:05.501Z,5.57
2017-11-07T00:03:33.112Z,5.59
2017-11-07T00:06:00.706Z,5.65
2017-11-07T00:08:28.267Z,5.66
2017-11-07T00:10:55.684Z,5.67
2017-11-07T00:13:23.074Z,5.72
2017-11-07T00:15:50.637Z,5.64
2017-11-07T00:18:18.118Z,5.63
2017-11-07T00:23:12.456Z,5.52
2017-11-07T00:25:40.077Z,5.37
2017-11-07T00:28:07.575Z,5.30
2017-11-07T00:30:35.003Z,5.40
2017-11-07T00:33:02.513Z,5.18
2017-11-07T00:35:30.039Z,5.21
2017-11-07T00:37:57.625Z,5.23
2017-11-07T00:40:25.254Z,5.29
2017-11-07T00:42:52.848Z,5.06
2017-11-07T00:45:20.267Z,5.03
2017-11-07T00:47:47.694Z,5.24
2017-11-07T00:50:15.090Z,5.34
2017-11-07T00:52:42.542Z,5.43
2017-11-07T00:55:09.990Z,5.53
2017-11-07T00:57:37.393Z,5.45
2017-11-07T01:00:04.811Z,5.24
2017-11-07T01:02:32.208Z,5.32
2017-11-07T01:04:59.632Z,5.30
2017-11-07T01:07:27.033Z,5.28
2017-11-07T01:09:54.426Z,5.22
2017-11-07T01:12:21.832Z,5.11
2017-11-07T01:14:49.243Z,5.00
2017-11-07T01:17:16.807Z,4.84
2017-11-07T01:19:44.252Z,4.84
2017-11-07T01:22:11.654Z,4.80
2017-11-07T01:24:39.058Z,4.89
2017-11-07T01:27:06.522Z,4.90
2017-11-07T01:29:33.913Z,4.90
2017-11-07T01:32:01.318Z,4.79
2017-11-07T01:34:28.722Z,4.68
2017-11-07T01:36:56.124Z,4.64
2017-11-07T01:39:23.514Z,4.71
2017-11-07T01:41:50.927Z,4.42
2017-11-07T01:44:18.327Z,4.46
2017-11-07T01:46:45.754Z,4.57
2017-11-07T01:49:13.220Z,4.66
2017-11-07T01:51:40.632Z,4.59
2017-11-07T01:54:08.128Z,4.62
2017-11-07T01:56:35.582Z,4.69
2017-11-07T01:59:02.985Z,4.68
2017-11-07T02:01:30.381Z,4.72
2017-11-07T02:03:57.815Z,4.71
2017-11-07T02:06:25.194Z,4.72
2017-11-07T02:08:52.613Z,4.76
2017-11-07T02:11:20.015Z,4.80
2017-11-07T02:13:47.471Z,4.64
2017-11-07T02:16:14.871Z,4.73
2017-11-07T02:18:42.273Z,4.68
2017-11-07T02:21:09.659Z,4.62
2017-11-07T02:23:37.092Z,4.54
2017-11-07T02:26:04.486Z,4.47
2017-11-07T02:28:31.893Z,4.45
2017-11-07T02:30:59.367Z,4.39
2017-11-07T02:33:26.766Z,4.25
2017-11-07T02:35:54.154Z,4.03
2017-11-07T02:38:21.559Z,4.08
2017-11-07T02:40:48.962Z,4.02
2017-11-07T02:43:16.355Z,4.09
2017-11-07T02:45:43.758Z,4.06
2017-11-07T02:48:11.248Z,3.94
2017-11-07T02:50:38.707Z,3.75
2017-11-07T02:53:06.103Z,3.77
2017-11-07T02:55:33.528Z,3.80
2017-11-07T02:58:00.904Z,3.67
2017-11-07T03:00:28.308Z,3.62
2017-11-07T03:02:55.711Z,3.63
2017-11-07T03:05:23.139Z,3.62
2017-11-07T03:07:50.604Z,3.48
2017-11-07T03:10:18.000Z,3.46
2017-11-07T03:12:45.498Z,3.45
2017-11-07T03:15:12.902Z,3.23
2017-11-07T03:17:40.291Z,3.24
2017-11-07T03:20:07.698Z,3.20
2017-11-07T03:22:35.122Z,3.29
2017-11-07T03:25:02.582Z,3.35
2017-11-07T03:27:29.980Z,3.37
2017-11-07T03:29:57.405Z,3.31
2017-11-07T03:32:24.862Z,3.24
2017-11-07T03:34:52.303Z,3.33
2017-11-07T03:37:19.698Z,3.41
2017-11-07T03:39:47.102Z,3.42
2017-11-07T03:42:14.497Z,3.34
2017-11-07T03:44:41.902Z,3.27
2017-11-07T03:47:09.295Z,3.14
2017-11-07T03:49:36.702Z,3.10
2017-11-07T03:52:04.090Z,3.01
2017-11-07T03:54:31.539Z,3.12
2017-11-07T03:56:58.944Z,3.09
2017-11-07T03:59:26.347Z,3.06
2017-11-07T04:01:53.753Z,3.13
2017-11-07T04:04:21.151Z,3.02
2017-11-07T04:06:48.547Z,3.02
2017-11-07T04:09:15.971Z,3.10
2017-11-07T04:11:43.426Z,3.02
2017-11-07T04:14:10.909Z,2.85
2017-11-07T04:16:38.312Z,2.63
2017-11-07T04:19:05.763Z,2.64
2017-11-07T04:21:33.164Z,2.70
2017-11-07T04:24:00.559Z,2.52
2017-11-07T04:26:27.955Z,2.69
2017-11-07T04:28:55.343Z,2.83
2017-11-07T04:31:22.767Z,2.85
2017-11-07T04:33:50.158Z,2.98
2017-11-07T04:36:17.558Z,2.90
2017-11-07T04:38:45.041Z,2.99
2017-11-07T04:41:12.443Z,2.70
2017-11-07T04:43:39.830Z,2.83
2017-11-07T04:46:07.268Z,2.56
2017-11-07T04:48:34.658Z,2.54
2017-11-07T04:51:02.065Z,2.65
2017-11-07T04:53:29.455Z,2.58
2017-11-07T04:55:56.857Z,2.62
2017-11-07T04:58:24.246Z,2.74
2017-11-07T05:00:51.654Z,2.88
2017-11-07T05:03:19.090Z,2.99
2017-11-07T05:05:46.492Z,2.92
2017-11-07T05:08:13.891Z,2.56
2017-11-07T05:10:41.344Z,2.55
2017-11-07T05:13:08.738Z,2.57
2017-11-07T05:15:36.177Z,2.45
2017-11-07T05:18:03.566Z,2.55
2017-11-07T05:20:30.967Z,2.46
2017-11-07T05:22:58.374Z,2.56
2017-11-07T05:25:25.754Z,2.49
2017-11-07T05:27:53.234Z,2.40
2017-11-07T05:30:20.683Z,2.47
2017-11-07T05:32:48.090Z,2.55
2017-11-07T05:35:15.499Z,2.62
2017-11-07T05:37:42.902Z,2.43
2017-11-07T05:40:10.319Z,2.34
2017-11-07T05:42:37.771Z,2.49
2017-11-07T05:45:05.166Z,2.53
2017-11-07T05:47:32.594Z,2.64
2017-11-07T05:50:00.048Z,2.53
2017-11-07T05:52:27.497Z,2.56
2017-11-07T05:54:54.894Z,2.49
2017-11-07T05:57:23.107Z,2.65
2017-11-07T05:59:50.491Z,2.78
2017-11-07T06:02:17.890Z,2.86
2017-11-07T06:04:45.278Z,2.96
2017-11-07T06:07:12.675Z,3.06
2017-11-07T06:09:40.076Z,3.21
2017-11-07T06:12:07.474Z,3.35
2017-11-07T06:14:34.867Z,3.56
2017-11-07T06:17:02.271Z,3.74
2017-11-07T06:19:29.730Z,3.68
2017-11-07T06:21:57.174Z,3.62
2017-11-07T06:24:24.575Z,3.64
2017-11-07T06:26:51.979Z,3.44
2017-11-07T06:29:19.373Z,3.51
2017-11-07T06:31:46.771Z,3.67
2017-11-07T06:34:14.169Z,3.50
2017-11-07T06:36:41.614Z,3.53
2017-11-07T06:39:09.007Z,3.38
2017-11-07T06:41:36.402Z,3.17
2017-11-07T06:44:03.799Z,2.99
2017-11-07T06:46:31.190Z,2.79
2017-11-07T06:48:58.590Z,2.88
2017-11-07T06:51:25.982Z,2.86
2017-11-07T06:53:53.399Z,2.77
2017-11-07T06:56:20.791Z,2.83
2017-11-07T06:58:48.194Z,2.80
2017-11-07T07:01:15.646Z,2.64
2017-11-07T07:03:43.051Z,2.54
2017-11-07T07:06:10.486Z,2.50
2017-11-07T07:08:37.859Z,2.57
2017-11-07T07:11:05.292Z,2.79
2017-11-07T07:13:32.680Z,2.88
2017-11-07T07:16:00.074Z,2.78
2017-11-07T07:18:27.463Z,2.65
2017-11-07T07:20:54.868Z,2.58
2017-11-07T07:23:22.358Z,2.65
2017-11-07T07:25:49.750Z,2.73
2017-11-07T07:28:17.167Z,2.84
2017-11-07T07:30:44.625Z,2.73
2017-11-07T07:33:12.090Z,2.71
2017-11-07T07:35:39.487Z,2.62
2017-11-07T07:38:06.888Z,2.80
2017-11-07T07:40:34.396Z,2.91
2017-11-07T07:43:01.854Z,2.81
2017-11-07T07:45:29.307Z,2.98
2017-11-07T07:47:56.701Z,3.32
2017-11-07T07:50:24.098Z,3.21
2017-11-07T07:52:51.492Z,3.17
2017-11-07T07:55:18.886Z,3.02
2017-11-07T07:57:46.288Z,3.11
2017-11-07T08:00:13.682Z,2.96
2017-11-07T08:02:41.084Z,3.00
2017-11-07T08:05:08.483Z,3.07
2017-11-07T08:07:35.870Z,3.04
2017-11-07T08:10:03.277Z,2.96
2017-11-07T08:12:30.671Z,3.13
2017-11-07T08:14:58.067Z,3.19
2017-11-07T08:17:25.454Z,3.19
2017-11-07T08:19:52.862Z,3.29
2017-11-07T08:22:20.339Z,3.34
2017-11-07T08:24:47.803Z,3.39
2017-11-07T08:27:15.191Z,3.36
2017-11-07T08:29:42.615Z,3.10
2017-11-07T08:32:10.058Z,3.12
2017-11-07T08:34:37.460Z,3.16
2017-11-07T08:37:04.850Z,3.05
2017-11-07T08:39:32.269Z,3.14
2017-11-07T08:41:59.662Z,3.14
2017-11-07T08:44:27.137Z,3.27
2017-11-07T08:46:54.594Z,3.41
2017-11-07T08:49:21.982Z,3.66
2017-11-07T08:51:49.373Z,3.65
2017-11-07T08:54:16.759Z,3.63
2017-11-07T08:56:44.147Z,3.59
2017-11-07T08:59:11.548Z,3.36
2017-11-07T09:01:38.927Z,3.47
2017-11-07T09:04:06.374Z,3.35
2017-11-07T09:06:33.841Z,3.25
2017-11-07T09:09:01.218Z,3.16
2017-11-07T09:11:28.646Z,3.15
2017-11-07T09:13:56.105Z,3.14
2017-11-07T09:16:23.495Z,3.24
2017-11-07T09:18:50.877Z,3.32
2017-11-07T09:21:18.271Z,3.17
2017-11-07T09:23:45.726Z,3.19
2017-11-07T09:26:13.134Z,3.19
2017-11-07T09:28:40.523Z,3.13
2017-11-07T09:31:07.907Z,3.23
2017-11-07T09:33:35.354Z,3.22
2017-11-07T09:36:02.743Z,3.30
2017-11-07T09:38:30.134Z,3.43
2017-11-07T09:40:57.515Z,3.47
2017-11-07T09:43:24.978Z,3.65
2017-11-07T09:45:52.366Z,3.74
2017-11-07T09:48:19.793Z,3.57
2017-11-07T09:50:47.176Z,3.77
2017-11-07T09:53:14.570Z,3.68
2017-11-07T09:55:42.051Z,3.58
2017-11-07T09:58:09.446Z,3.66
2017-11-07T10:00:36.889Z,3.80
2017-11-07T10:03:04.278Z,3.80
2017-11-07T10:05:31.679Z,3.73
2017-11-07T10:07:59.067Z,3.63
2017-11-07T10:10:26.487Z,3.66
2017-11-07T10:12:53.879Z,3.63
2017-11-07T10:15:21.257Z,3.63
2017-11-07T10:17:48.650Z,3.68
2017-11-07T10:20:16.035Z,3.72
2017-11-07T10:22:43.428Z,3.77
2017-11-07T10:25:10.810Z,3.78
2017-11-07T10:27:38.213Z,3.90
2017-11-07T10:30:05.598Z,3.85
2017-11-07T10:32:33.002Z,4.09
2017-11-07T10:35:00.432Z,4.25
2017-11-07T10:37:27.886Z,4.26
2017-11-07T10:39:55.287Z,4.29
2017-11-07T10:42:22.707Z,4.29
2017-11-07T10:44:50.102Z,4.32
2017-11-07T10:47:17.582Z,4.18
2017-11-07T10:49:44.971Z,3.94
2017-11-07T10:52:12.359Z,3.81
2017-11-07T10:54:39.756Z,3.92
2017-11-07T10:57:07.140Z,4.08
2017-11-07T10:59:34.524Z,4.08
2017-11-07T11:02:01.913Z,4.19
2017-11-07T11:04:29.312Z,4.18
2017-11-07T11:06:56.724Z,4.36
2017-11-07T11:09:24.099Z,4.29
2017-11-07T11:11:51.482Z,4.35
2017-11-07T11:14:18.978Z,4.55
2017-11-07T11:16:46.374Z,4.55
2017-11-07T11:19:13.794Z,4.72
2017-11-07T11:21:41.176Z,4.74
2017-11-07T11:24:08.568Z,4.75
2017-11-07T11:26:36.059Z,4.61
2017-11-07T11:29:03.457Z,4.55
2017-11-07T11:31:30.842Z,4.39
2017-11-07T11:33:58.226Z,4.33
2017-11-07T11:36:25.619Z,4.47
2017-11-07T11:38:53.019Z,4.33
2017-11-07T11:41:20.471Z,4.34
2017-11-07T11:43:47.954Z,4.47
2017-11-07T11:46:15.402Z,4.68
2017-11-07T11:48:42.799Z,4.82
2017-11-07T11:51:10.210Z,4.91
2017-11-07T11:53:37.675Z,4.74
2017-11-07T11:56:05.072Z,4.87
2017-11-07T11:58:32.454Z,5.07
2017-11-07T12:00:59.947Z,5.21
2017-11-07T12:03:27.344Z,5.29
2017-11-07T12:05:54.751Z,5.49
2017-11-07T12:08:22.135Z,5.65
2017-11-07T12:10:49.532Z,5.60
2017-11-07T12:13:16.915Z,5.66
2017-11-07T12:15:44.315Z,5.71
2017-11-07T12:18:11.699Z,5.64
2017-11-07T12:20:39.095Z,5.59
2017-11-07T12:23:06.487Z,5.36
2017-11-07T12:25:33.877Z,5.37
2017-11-07T12:28:01.270Z,5.49
2017-11-07T12:30:28.666Z,5.56
2017-11-07T12:32:56.130Z,5.66
2017-11-07T12:35:23.524Z,5.68
2017-11-07T12:37:50.911Z,5.57
2017-11-07T12:40:18.328Z,5.65
2017-11-07T12:42:45.728Z,5.84
2017-11-07T12:45:13.115Z,5.73
2017-11-07T12:47:40.511Z,5.58
2017-11-07T12:50:19.923Z,5.61
2017-11-07T12:52:47.379Z,5.83
2017-11-07T12:55:14.766Z,5.74
2017-11-07T12:57:42.155Z,5.81
2017-11-07T13:00:09.555Z,5.92
2017-11-07T13:02:36.949Z,6.08
2017-11-07T13:05:04.350Z,6.13
2017-11-07T13:07:31.821Z,6.26
2017-11-07T13:09:59.211Z,6.34
2017-11-07T13:12:26.652Z,6.24
2017-11-07T13:14:54.025Z,6.25
2017-11-07T13:17:21.422Z,6.27
2017-11-07T13:19:48.812Z,6.03
2017-11-07T13:22:16.291Z,6.22
2017-11-07T13:24:43.679Z,6.27
2017-11-07T13:27:11.072Z,6.19
2017-11-07T13:29:38.464Z,6.16
2017-11-07T13:32:05.873Z,6.11
2017-11-07T13:34:33.262Z,6.08
2017-11-07T13:37:00.660Z,6.14
2017-11-07T13:39:28.099Z,6.05
2017-11-07T13:41:55.498Z,6.10
2017-11-07T13:44:22.911Z,6.19
2017-11-07T13:46:50.311Z,6.29
2017-11-07T13:49:17.718Z,6.21
2017-11-07T13:51:45.116Z,6.10
2017-11-07T13:54:12.502Z,6.13
2017-11-07T13:56:39.892Z,6.21
2017-11-07T13:59:07.283Z,6.27
2017-11-07T14:01:34.676Z,6.43
2017-11-07T14:04:02.064Z,6.53
2017-11-07T14:06:29.446Z,6.47
2017-11-07T14:08:56.838Z,6.47
2017-11-07T14:11:24.306Z,6.51
2017-11-07T14:13:51.703Z,6.53
2017-11-07T14:16:19.118Z,6.46
2017-11-07T14:18:46.524Z,6.29
2017-11-07T14:21:13.910Z,6.29
2017-11-07T14:23:41.308Z,6.25
2017-11-07T14:26:08.695Z,6.15
2017-11-07T14:28:36.194Z,6.05
2017-11-07T14:31:03.597Z,6.11
2017-11-07T14:33:30.990Z,6.15
2017-11-07T14:35:58.484Z,6.25
2017-11-07T14:38:25.966Z,6.18
2017-11-07T14:40:53.406Z,6.34
2017-11-07T14:43:20.810Z,6.33
2017-11-07T14:45:48.221Z,6.42
2017-11-07T14:48:15.594Z,6.49
2017-11-07T14:50:43.063Z,6.35
2017-11-07T14:53:10.455Z,6.28
2017-11-07T14:55:37.855Z,6.44
2017-11-07T14:58:05.255Z,6.53
2017-11-07T15:00:32.650Z,6.70
2017-11-07T15:03:00.047Z,6.62
2017-11-07T15:05:27.455Z,6.75
2017-11-07T15:07:55.077Z,6.83
2017-11-07T15:10:22.554Z,6.84
2017-11-07T15:12:49.935Z,6.63
2017-11-07T15:15:17.384Z,6.68
2017-11-07T15:17:44.798Z,6.78
2017-11-07T15:20:12.190Z,6.87
2017-11-07T15:22:39.661Z,6.88
2017-11-07T15:25:07.078Z,6.79
2017-11-07T15:27:34.474Z,6.62
2017-11-07T15:30:01.880Z,6.44
2017-11-07T15:32:29.275Z,6.43
2017-11-07T15:34:56.731Z,6.34
2017-11-07T15:37:24.193Z,6.60
2017-11-07T15:39:51.607Z,6.61
2017-11-07T15:42:19.028Z,6.58
2017-11-07T15:44:46.448Z,6.58
2017-11-07T15:47:13.879Z,6.53
2017-11-07T15:49:41.287Z,6.52
2017-11-07T15:52:08.687Z,6.42
2017-11-07T15:54:36.149Z,6.35
2017-11-07T15:57:03.543Z,6.27
2017-11-07T15:59:31.033Z,6.18
2017-11-07T16:01:58.455Z,6.12
2017-11-07T16:04:25.838Z,6.21
2017-11-07T16:06:53.224Z,6.39
2017-11-07T16:09:20.627Z,6.33
2017-11-07T16:11:48.027Z,6.38
2017-11-07T16:14:15.422Z,6.38
2017-11-07T16:16:42.878Z,6.30
2017-11-07T16:19:10.332Z,6.32
2017-11-07T16:21:37.747Z,6.35
2017-11-07T16:24:05.260Z,6.44
2017-11-07T16:26:32.709Z,6.39
2017-11-07T16:29:00.148Z,6.33
2017-11-07T16:31:27.547Z,6.22
2017-11-07T16:33:54.934Z,6.12
2017-11-07T16:36:22.428Z,6.03
2017-11-07T16:38:49.842Z,6.11
2017-11-07T16:41:17.238Z,6.08
2017-11-07T16:43:44.628Z,6.00
2017-11-07T16:46:12.040Z,6.17
2017-11-07T16:48:39.498Z,6.31
2017-11-07T16:51:06.899Z,6.24
2017-11-07T16:53:34.319Z,6.27
2017-11-07T16:56:01.758Z,6.42
2017-11-07T16:58:29.156Z,6.41
2017-11-07T17:00:56.579Z,6.38
2017-11-07T17:03:24.030Z,6.31
2017-11-07T17:05:51.427Z,6.34
2017-11-07T17:08:18.816Z,6.33
2017-11-07T17:10:46.298Z,6.35
2017-11-07T17:13:13.681Z,6.33
2017-11-07T17:15:41.075Z,6.44
2017-11-07T17:18:08.468Z,6.38
2017-11-07T17:20:35.862Z,6.55
2017-11-07T17:23:03.256Z,6.55
2017-11-07T17:25:30.656Z,6.35
2017-11-07T17:27:58.049Z,6.42
2017-11-07T17:30:25.560Z,6.51
2017-11-07T17:32:53.007Z,6.47
2017-11-07T17:35:20.390Z,6.57
2017-11-07T17:37:47.799Z,6.61
2017-11-07T17:40:15.269Z,6.61
2017-11-07T17:42:42.682Z,6.49
2017-11-07T17:45:10.062Z,6.46
2017-11-07T17:47:37.459Z,6.40
2017-11-07T17:50:04.851Z,6.59
2017-11-07T17:52:32.249Z,6.69
2017-11-07T17:54:59.639Z,6.43
2017-11-07T17:57:27.055Z,6.51
2017-11-07T17:59:54.512Z,6.67
2017-11-07T18:02:21.931Z,6.65
2017-11-07T18:04:49.355Z,6.46
2017-11-07T18:07:16.758Z,6.50
2017-11-07T18:09:44.235Z,6.62
2017-11-07T18:12:11.622Z,6.61
2017-11-07T18:14:39.040Z,6.75
2017-11-07T18:17:06.422Z,6.77
2017-11-07T18:19:33.821Z,6.79
2017-11-07T18:22:01.313Z,6.75
2017-11-07T18:24:28.766Z,6.81
2017-11-07T18:26:56.163Z,6.76
2017-11-07T18:29:23.578Z,6.72
2017-11-07T18:31:51.039Z,6.63
2017-11-07T18:34:18.419Z,6.60
2017-11-07T18:36:45.830Z,6.58
2017-11-07T18:39:13.299Z,6.72
2017-11-07T18:41:40.691Z,6.77
2017-11-07T18:44:08.082Z,6.83
2017-11-07T18:46:35.582Z,6.82
2017-11-07T18:49:02.963Z,6.90
2017-11-07T18:51:30.383Z,6.90
2017-11-07T18:53:57.765Z,6.68
2017-11-07T18:56:25.184Z,6.70
2017-11-07T18:58:52.574Z,6.81
2017-11-07T19:01:20.106Z,6.88
2017-11-07T19:03:47.496Z,6.75
2017-11-07T19:06:14.908Z,6.70
2017-11-07T19:08:42.301Z,6.79
2017-11-07T19:11:09.693Z,6.82
2017-11-07T19:13:37.088Z,6.81
2017-11-07T19:16:04.535Z,6.82
2017-11-07T19:18:31.932Z,6.85
2017-11-07T19:20:59.341Z,6.85
2017-11-07T19:23:26.738Z,6.89
2017-11-07T19:25:54.121Z,6.86
2017-11-07T19:28:21.527Z,6.80
2017-11-07T19:30:48.922Z,6.95
2017-11-07T19:33:16.436Z,6.83
2017-11-07T19:35:43.826Z,6.90
2017-11-07T19:38:11.235Z,6.76
2017-11-07T19:40:38.635Z,6.81
2017-11-07T19:43:06.074Z,6.81
2017-11-07T19:45:33.494Z,6.94
2017-11-07T19:48:00.883Z,7.02
2017-11-07T19:50:28.310Z,7.03
2017-11-07T19:52:55.786Z,6.90
2017-11-07T19:55:23.233Z,6.80
2017-11-07T19:57:50.610Z,6.83
2017-11-07T20:00:18.010Z,6.87
2017-11-07T20:02:45.486Z,6.85
2017-11-07T20:05:12.879Z,6.90
2017-11-07T20:07:40.302Z,6.77
2017-11-07T20:10:07.721Z,6.71
2017-11-07T20:12:35.114Z,6.72
2017-11-07T20:15:02.504Z,7.09
2017-11-07T20:17:29.892Z,7.10
2017-11-07T20:19:57.374Z,7.02
2017-11-07T20:22:24.773Z,7.01
2017-11-07T20:24:52.178Z,7.11
2017-11-07T20:27:19.643Z,7.06
2017-11-07T20:29:47.027Z,7.20
2017-11-07T20:32:14.445Z,7.22
2017-11-07T20:34:41.828Z,7.28
2017-11-07T20:37:09.280Z,7.24
2017-11-07T20:39:36.662Z,7.19
2017-11-07T20:42:04.068Z,7.17
2017-11-07T20:44:31.458Z,7.06
2017-11-07T20:46:58.863Z,6.85
2017-11-07T20:51:56.474Z,6.87
2017-11-07T20:54:23.868Z,6.95
2017-11-07T20:56:51.370Z,7.00
2017-11-07T20:59:18.758Z,7.10
2017-11-07T21:01:46.163Z,7.04
2017-11-07T21:04:13.554Z,7.15
2017-11-07T21:06:40.982Z,7.16
2017-11-07T21:09:08.443Z,7.03
2017-11-07T21:11:35.835Z,7.06
2017-11-07T21:14:03.236Z,7.02
2017-11-07T21:16:30.623Z,6.94
2017-11-07T21:18:58.023Z,6.89
2017-11-07T21:21:26.217Z,6.88
2017-11-07T21:23:53.706Z,6.79
2017-11-07T21:26:21.103Z,6.94
2017-11-07T21:28:48.495Z,6.97
2017-11-07T21:31:15.887Z,7.03
2017-11-07T21:33:43.279Z,6.94
2017-11-07T21:36:10.683Z,6.85
2017-11-07T21:38:38.084Z,6.94
2017-11-07T21:41:05.500Z,6.94
2017-11-07T21:43:32.906Z,6.93
2017-11-07T21:46:00.298Z,6.82
2017-11-07T21:48:27.962Z,6.89
2017-11-07T21:50:55.375Z,7.00
2017-11-07T21:53:22.767Z,7.03
2017-11-07T21:55:50.167Z,6.90
2017-11-07T21:58:17.563Z,6.94
2017-11-07T22:00:44.970Z,6.84
2017-11-07T22:03:12.386Z,6.74
2017-11-07T22:05:39.850Z,6.75
2017-11-07T22:08:07.243Z,6.76
2017-11-07T22:10:34.670Z,6.88
2017-11-07T22:13:02.055Z,6.83
2017-11-07T22:15:29.579Z,6.72
2017-11-07T22:20:53.934Z,6.76
2017-11-07T22:23:26.359Z,6.71
2017-11-07T22:25:53.814Z,6.76
2017-11-07T22:28:21.215Z,6.67
2017-11-07T22:30:48.607Z,6.64
2017-11-07T22:33:15.995Z,6.90
2017-11-07T22:35:43.414Z,6.98
2017-11-07T22:38:10.816Z,6.95
2017-11-07T22:40:38.207Z,6.80
2017-11-07T22:43:05.617Z,6.87
2017-11-07T22:45:33.010Z,6.97
2017-11-07T22:48:00.426Z,6.97
2017-11-07T22:50:27.822Z,7.01
2017-11-07T22:52:55.218Z,7.04
2017-11-07T22:55:22.607Z,7.11
2017-11-07T22:57:50.008Z,7.12
2017-11-07T23:00:17.495Z,7.12
2017-11-07T23:02:44.942Z,7.03
2017-11-07T23:05:12.343Z,6.98
2017-11-07T23:07:39.745Z,6.94
2017-11-07T23:10:07.180Z,6.94
2017-11-07T23:12:34.561Z,7.07
2017-11-07T23:15:01.976Z,7.14
2017-11-07T23:17:29.359Z,7.19
2017-11-07T23:19:56.829Z,7.17
2017-11-07T23:22:24.216Z,7.16
2017-11-07T23:24:51.628Z,7.40
2017-11-07T23:27:19.009Z,7.52
2017-11-07T23:29:46.418Z,7.31
2017-11-07T23:32:13.817Z,7.23
2017-11-07T23:34:41.197Z,7.17
2017-11-07T23:37:08.619Z,7.14
2017-11-07T23:39:36.065Z,7.15
2017-11-07T23:42:03.459Z,7.23
2017-11-07T23:44:30.854Z,7.27
2017-11-07T23:46:58.356Z,7.35
2017-11-07T23:49:25.757Z,7.46
2017-11-07T23:51:53.151Z,7.45
2017-11-07T23:54:20.580Z,7.45
2017-11-07T23:56:48.013Z,7.52
2017-11-07T23:59:21.946Z,7.58
